sensor_id;sensor_type;location;lat;lon;timestamp;P1;durP1;ratioP1;P2;durP2;ratioP2
1410;SDS011;700;51.906;8.404;2024-03-02T00:04:35;8.77;;;7.00;;
1410;SDS011;700;51.906;8.404;2024-03-02T00:09:41;9.47;;;6.80;;
1410;SDS011;700;51.906;8.404;2024-03-02T00:14:42;8.47;;;7.20;;
1410;SDS011;700;51.906;8.404;2024-03-02T00:19:43;11.33;;;7.43;;
1410;SDS011;700;51.906;8.404;2024-03-02T00:24:46;9.97;;;8.30;;
1410;SDS011;700;51.906;8.404;2024-03-02T00:29:47;10.40;;;8.07;;
1410;SDS011;700;51.906;8.404;2024-03-02T00:34:50;10.47;;;7.97;;
1410;SDS011;700;51.906;8.404;2024-03-02T00:39:53;10.17;;;7.70;;
1410;SDS011;700;51.906;8.404;2024-03-02T00:44:53;11.27;;;7.90;;
1410;SDS011;700;51.906;8.404;2024-03-02T00:49:54;11.17;;;8.67;;
1410;SDS011;700;51.906;8.404;2024-03-02T00:54:56;10.93;;;8.10;;
1410;SDS011;700;51.906;8.404;2024-03-02T00:59:57;13.00;;;9.27;;
1410;SDS011;700;51.906;8.404;2024-03-02T01:04:58;12.07;;;8.63;;
1410;SDS011;700;51.906;8.404;2024-03-02T01:10:01;11.33;;;8.80;;
1410;SDS011;700;51.906;8.404;2024-03-02T01:15:04;14.10;;;10.33;;
1410;SDS011;700;51.906;8.404;2024-03-02T01:20:08;12.40;;;9.00;;
1410;SDS011;700;51.906;8.404;2024-03-02T01:25:11;11.27;;;8.73;;
1410;SDS011;700;51.906;8.404;2024-03-02T01:30:13;13.00;;;8.90;;
1410;SDS011;700;51.906;8.404;2024-03-02T01:35:16;11.33;;;8.47;;
1410;SDS011;700;51.906;8.404;2024-03-02T01:40:17;10.90;;;8.63;;
1410;SDS011;700;51.906;8.404;2024-03-02T01:45:17;11.00;;;8.10;;
1410;SDS011;700;51.906;8.404;2024-03-02T01:50:24;10.60;;;7.83;;
1410;SDS011;700;51.906;8.404;2024-03-02T01:55:32;11.20;;;8.77;;
1410;SDS011;700;51.906;8.404;2024-03-02T02:00:34;10.17;;;7.90;;
1410;SDS011;700;51.906;8.404;2024-03-02T02:05:35;11.13;;;8.60;;
1410;SDS011;700;51.906;8.404;2024-03-02T02:10:38;11.17;;;8.20;;
1410;SDS011;700;51.906;8.404;2024-03-02T02:15:39;13.83;;;9.30;;
1410;SDS011;700;51.906;8.404;2024-03-02T02:20:39;12.83;;;9.90;;
1410;SDS011;700;51.906;8.404;2024-03-02T02:25:44;10.73;;;8.50;;
1410;SDS011;700;51.906;8.404;2024-03-02T02:30:46;12.50;;;9.00;;
1410;SDS011;700;51.906;8.404;2024-03-02T02:35:47;11.40;;;8.30;;
1410;SDS011;700;51.906;8.404;2024-03-02T02:40:47;10.13;;;8.73;;
1410;SDS011;700;51.906;8.404;2024-03-02T02:45:48;12.93;;;8.33;;
1410;SDS011;700;51.906;8.404;2024-03-02T02:50:49;10.43;;;8.63;;
1410;SDS011;700;51.906;8.404;2024-03-02T02:55:49;11.23;;;8.47;;
1410;SDS011;700;51.906;8.404;2024-03-02T03:00:50;11.40;;;8.97;;
1410;SDS011;700;51.906;8.404;2024-03-02T03:05:53;12.17;;;8.87;;
1410;SDS011;700;51.906;8.404;2024-03-02T03:10:56;11.43;;;9.40;;
1410;SDS011;700;51.906;8.404;2024-03-02T03:15:56;12.87;;;9.40;;
1410;SDS011;700;51.906;8.404;2024-03-02T03:20:57;13.30;;;9.13;;
1410;SDS011;700;51.906;8.404;2024-03-02T03:25:57;12.70;;;9.70;;
1410;SDS011;700;51.906;8.404;2024-03-02T03:31:00;13.07;;;9.23;;
1410;SDS011;700;51.906;8.404;2024-03-02T03:36:02;12.73;;;9.57;;
1410;SDS011;700;51.906;8.404;2024-03-02T03:41:05;15.97;;;10.70;;
1410;SDS011;700;51.906;8.404;2024-03-02T03:46:09;15.30;;;10.00;;
1410;SDS011;700;51.906;8.404;2024-03-02T03:51:09;17.23;;;9.93;;
1410;SDS011;700;51.906;8.404;2024-03-02T03:56:10;14.27;;;10.70;;
1410;SDS011;700;51.906;8.404;2024-03-02T04:01:10;16.93;;;10.07;;
1410;SDS011;700;51.906;8.404;2024-03-02T04:06:11;14.93;;;10.13;;
1410;SDS011;700;51.906;8.404;2024-03-02T04:11:14;14.10;;;10.50;;
1410;SDS011;700;51.906;8.404;2024-03-02T04:16:14;16.70;;;11.30;;
1410;SDS011;700;51.906;8.404;2024-03-02T04:21:15;14.80;;;11.27;;
1410;SDS011;700;51.906;8.404;2024-03-02T04:26:16;15.30;;;11.50;;
1410;SDS011;700;51.906;8.404;2024-03-02T04:31:24;16.37;;;11.60;;
1410;SDS011;700;51.906;8.404;2024-03-02T04:36:27;18.80;;;13.07;;
1410;SDS011;700;51.906;8.404;2024-03-02T04:41:27;15.87;;;12.23;;
1410;SDS011;700;51.906;8.404;2024-03-02T04:46:28;21.40;;;13.97;;
1410;SDS011;700;51.906;8.404;2024-03-02T04:51:28;17.07;;;12.20;;
1410;SDS011;700;51.906;8.404;2024-03-02T04:56:29;20.90;;;13.30;;
1410;SDS011;700;51.906;8.404;2024-03-02T05:01:33;18.87;;;13.63;;
1410;SDS011;700;51.906;8.404;2024-03-02T05:06:33;16.33;;;12.87;;
1410;SDS011;700;51.906;8.404;2024-03-02T05:11:34;19.17;;;13.77;;
1410;SDS011;700;51.906;8.404;2024-03-02T05:16:40;18.00;;;13.33;;
1410;SDS011;700;51.906;8.404;2024-03-02T05:21:44;19.23;;;13.57;;
1410;SDS011;700;51.906;8.404;2024-03-02T05:26:44;15.73;;;12.47;;
1410;SDS011;700;51.906;8.404;2024-03-02T05:31:45;18.57;;;12.83;;
1410;SDS011;700;51.906;8.404;2024-03-02T05:36:48;15.20;;;11.27;;
1410;SDS011;700;51.906;8.404;2024-03-02T05:41:51;18.47;;;13.23;;
1410;SDS011;700;51.906;8.404;2024-03-02T05:46:54;18.87;;;14.27;;
1410;SDS011;700;51.906;8.404;2024-03-02T05:51:57;16.47;;;12.07;;
1410;SDS011;700;51.906;8.404;2024-03-02T05:57:00;17.83;;;11.90;;
1410;SDS011;700;51.906;8.404;2024-03-02T06:02:16;19.80;;;14.27;;
1410;SDS011;700;51.906;8.404;2024-03-02T06:07:17;19.70;;;13.60;;
1410;SDS011;700;51.906;8.404;2024-03-02T06:12:20;16.70;;;11.63;;
1410;SDS011;700;51.906;8.404;2024-03-02T06:17:23;18.20;;;13.77;;
1410;SDS011;700;51.906;8.404;2024-03-02T06:22:25;17.37;;;12.60;;
1410;SDS011;700;51.906;8.404;2024-03-02T06:27:26;16.87;;;12.20;;
1410;SDS011;700;51.906;8.404;2024-03-02T06:32:27;19.33;;;14.03;;
1410;SDS011;700;51.906;8.404;2024-03-02T06:37:27;16.73;;;12.20;;
1410;SDS011;700;51.906;8.404;2024-03-02T06:42:28;17.90;;;12.63;;
1410;SDS011;700;51.906;8.404;2024-03-02T06:47:33;19.30;;;14.00;;
1410;SDS011;700;51.906;8.404;2024-03-02T06:52:33;16.00;;;12.37;;
1410;SDS011;700;51.906;8.404;2024-03-02T06:57:34;17.20;;;11.70;;
1410;SDS011;700;51.906;8.404;2024-03-02T07:02:37;17.20;;;12.90;;
1410;SDS011;700;51.906;8.404;2024-03-02T07:07:38;19.93;;;13.30;;
1410;SDS011;700;51.906;8.404;2024-03-02T07:12:38;18.67;;;13.23;;
1410;SDS011;700;51.906;8.404;2024-03-02T07:17:39;23.57;;;14.80;;
1410;SDS011;700;51.906;8.404;2024-03-02T07:22:39;19.73;;;13.27;;
1410;SDS011;700;51.906;8.404;2024-03-02T07:27:43;16.10;;;11.90;;
1410;SDS011;700;51.906;8.404;2024-03-02T07:32:46;17.77;;;12.63;;
1410;SDS011;700;51.906;8.404;2024-03-02T07:37:49;22.00;;;14.30;;
1410;SDS011;700;51.906;8.404;2024-03-02T07:42:53;15.10;;;13.33;;
1410;SDS011;700;51.906;8.404;2024-03-02T07:47:53;16.33;;;12.60;;
1410;SDS011;700;51.906;8.404;2024-03-02T07:52:56;17.27;;;12.43;;
1410;SDS011;700;51.906;8.404;2024-03-02T07:57:57;15.90;;;13.10;;
1410;SDS011;700;51.906;8.404;2024-03-02T08:02:58;14.90;;;11.60;;
1410;SDS011;700;51.906;8.404;2024-03-02T08:07:59;14.10;;;11.73;;
1410;SDS011;700;51.906;8.404;2024-03-02T08:13:00;13.30;;;11.70;;
1410;SDS011;700;51.906;8.404;2024-03-02T08:18:00;13.50;;;10.93;;
1410;SDS011;700;51.906;8.404;2024-03-02T08:23:06;11.57;;;10.13;;
1410;SDS011;700;51.906;8.404;2024-03-02T08:28:10;11.70;;;10.30;;
1410;SDS011;700;51.906;8.404;2024-03-02T08:33:11;11.97;;;10.67;;
1410;SDS011;700;51.906;8.404;2024-03-02T08:38:12;13.03;;;10.03;;
1410;SDS011;700;51.906;8.404;2024-03-02T08:43:13;13.63;;;10.40;;
1410;SDS011;700;51.906;8.404;2024-03-02T08:48:16;10.73;;;8.80;;
1410;SDS011;700;51.906;8.404;2024-03-02T08:53:23;12.13;;;9.20;;
1410;SDS011;700;51.906;8.404;2024-03-02T08:58:26;12.10;;;9.60;;
1410;SDS011;700;51.906;8.404;2024-03-02T09:03:26;11.73;;;9.30;;
1410;SDS011;700;51.906;8.404;2024-03-02T09:08:27;9.30;;;7.67;;
1410;SDS011;700;51.906;8.404;2024-03-02T09:13:28;8.07;;;7.27;;
1410;SDS011;700;51.906;8.404;2024-03-02T09:18:31;8.23;;;6.23;;
1410;SDS011;700;51.906;8.404;2024-03-02T09:23:32;8.77;;;7.80;;
1410;SDS011;700;51.906;8.404;2024-03-02T09:28:33;7.00;;;6.30;;
1410;SDS011;700;51.906;8.404;2024-03-02T09:33:36;7.00;;;6.30;;
1410;SDS011;700;51.906;8.404;2024-03-02T09:38:36;7.13;;;5.57;;
1410;SDS011;700;51.906;8.404;2024-03-02T09:43:42;5.50;;;5.00;;
1410;SDS011;700;51.906;8.404;2024-03-02T09:48:43;6.20;;;5.60;;
1410;SDS011;700;51.906;8.404;2024-03-02T09:53:47;11.30;;;9.07;;
1410;SDS011;700;51.906;8.404;2024-03-02T09:58:49;9.07;;;8.17;;
1410;SDS011;700;51.906;8.404;2024-03-02T10:03:49;10.13;;;9.00;;
1410;SDS011;700;51.906;8.404;2024-03-02T10:08:51;8.43;;;7.47;;
1410;SDS011;700;51.906;8.404;2024-03-02T10:14:01;7.90;;;7.10;;
1410;SDS011;700;51.906;8.404;2024-03-02T10:19:20;7.10;;;6.40;;
1410;SDS011;700;51.906;8.404;2024-03-02T10:24:22;8.03;;;6.60;;
1410;SDS011;700;51.906;8.404;2024-03-02T10:29:27;8.20;;;7.40;;
1410;SDS011;700;51.906;8.404;2024-03-02T10:34:30;7.23;;;6.13;;
1410;SDS011;700;51.906;8.404;2024-03-02T10:39:31;7.60;;;6.30;;
1410;SDS011;700;51.906;8.404;2024-03-02T10:44:32;8.60;;;7.30;;
1410;SDS011;700;51.906;8.404;2024-03-02T10:49:38;8.40;;;7.40;;
1410;SDS011;700;51.906;8.404;2024-03-02T10:54:41;8.30;;;7.40;;
1410;SDS011;700;51.906;8.404;2024-03-02T11:00:03;7.40;;;6.73;;
1410;SDS011;700;51.906;8.404;2024-03-02T11:05:03;7.90;;;7.10;;
1410;SDS011;700;51.906;8.404;2024-03-02T11:10:08;27.60;;;11.20;;
1410;SDS011;700;51.906;8.404;2024-03-02T11:15:13;8.77;;;6.93;;
1410;SDS011;700;51.906;8.404;2024-03-02T11:20:19;88.63;;;34.57;;
1410;SDS011;700;51.906;8.404;2024-03-02T11:25:24;8.43;;;7.33;;
1410;SDS011;700;51.906;8.404;2024-03-02T11:35:34;8.30;;;7.50;;
1410;SDS011;700;51.906;8.404;2024-03-02T11:40:36;8.77;;;7.87;;
1410;SDS011;700;51.906;8.404;2024-03-02T11:45:39;7.33;;;6.67;;
1410;SDS011;700;51.906;8.404;2024-03-02T11:50:49;7.27;;;6.10;;
1410;SDS011;700;51.906;8.404;2024-03-02T11:55:50;6.07;;;5.50;;
1410;SDS011;700;51.906;8.404;2024-03-02T12:00:53;7.07;;;6.37;;
1410;SDS011;700;51.906;8.404;2024-03-02T12:05:55;8.20;;;4.60;;
1410;SDS011;700;51.906;8.404;2024-03-02T12:10:59;2.13;;;1.70;;
1410;SDS011;700;51.906;8.404;2024-03-02T12:16:01;2.20;;;1.43;;
1410;SDS011;700;51.906;8.404;2024-03-02T12:21:01;2.90;;;2.23;;
1410;SDS011;700;51.906;8.404;2024-03-02T12:26:07;2.37;;;1.70;;
1410;SDS011;700;51.906;8.404;2024-03-02T12:31:09;4.17;;;2.10;;
1410;SDS011;700;51.906;8.404;2024-03-02T12:36:10;4.63;;;2.83;;
1410;SDS011;700;51.906;8.404;2024-03-02T12:41:17;5.10;;;3.20;;
1410;SDS011;700;51.906;8.404;2024-03-02T12:46:17;5.97;;;4.10;;
1410;SDS011;700;51.906;8.404;2024-03-02T12:51:18;5.07;;;4.20;;
1410;SDS011;700;51.906;8.404;2024-03-02T12:56:21;7.90;;;5.07;;
1410;SDS011;700;51.906;8.404;2024-03-02T13:01:24;7.37;;;5.27;;
1410;SDS011;700;51.906;8.404;2024-03-02T13:06:25;4.10;;;3.70;;
1410;SDS011;700;51.906;8.404;2024-03-02T13:11:29;5.10;;;3.90;;
1410;SDS011;700;51.906;8.404;2024-03-02T13:16:37;5.47;;;3.93;;
1410;SDS011;700;51.906;8.404;2024-03-02T13:21:40;4.57;;;4.10;;
1410;SDS011;700;51.906;8.404;2024-03-02T13:26:42;5.77;;;4.87;;
1410;SDS011;700;51.906;8.404;2024-03-02T13:31:42;5.30;;;4.50;;
1410;SDS011;700;51.906;8.404;2024-03-02T13:36:45;5.87;;;4.77;;
1410;SDS011;700;51.906;8.404;2024-03-02T13:41:46;5.30;;;4.13;;
1410;SDS011;700;51.906;8.404;2024-03-02T13:46:55;7.37;;;5.00;;
1410;SDS011;700;51.906;8.404;2024-03-02T13:51:55;5.73;;;4.90;;
1410;SDS011;700;51.906;8.404;2024-03-02T13:57:00;5.23;;;4.20;;
1410;SDS011;700;51.906;8.404;2024-03-02T14:02:06;6.03;;;5.03;;
1410;SDS011;700;51.906;8.404;2024-03-02T14:07:08;4.90;;;4.40;;
1410;SDS011;700;51.906;8.404;2024-03-02T14:12:10;5.77;;;5.10;;
1410;SDS011;700;51.906;8.404;2024-03-02T14:17:13;6.13;;;4.57;;
1410;SDS011;700;51.906;8.404;2024-03-02T14:22:15;9.83;;;4.30;;
1410;SDS011;700;51.906;8.404;2024-03-02T14:27:17;8.60;;;4.00;;
1410;SDS011;700;51.906;8.404;2024-03-02T14:32:21;7.70;;;3.80;;
1410;SDS011;700;51.906;8.404;2024-03-02T14:37:22;5.53;;;4.00;;
1410;SDS011;700;51.906;8.404;2024-03-02T14:42:22;7.23;;;4.50;;
1410;SDS011;700;51.906;8.404;2024-03-02T14:47:28;4.77;;;3.67;;
1410;SDS011;700;51.906;8.404;2024-03-02T14:52:34;6.10;;;3.73;;
1410;SDS011;700;51.906;8.404;2024-03-02T14:57:35;5.53;;;4.20;;
1410;SDS011;700;51.906;8.404;2024-03-02T15:02:36;6.13;;;3.50;;
1410;SDS011;700;51.906;8.404;2024-03-02T15:07:36;5.30;;;3.80;;
1410;SDS011;700;51.906;8.404;2024-03-02T15:12:38;4.50;;;3.30;;
1410;SDS011;700;51.906;8.404;2024-03-02T15:17:39;5.73;;;3.23;;
1410;SDS011;700;51.906;8.404;2024-03-02T15:22:42;3.93;;;3.33;;
1410;SDS011;700;51.906;8.404;2024-03-02T15:27:45;4.03;;;3.10;;
1410;SDS011;700;51.906;8.404;2024-03-02T15:32:45;3.13;;;2.10;;
1410;SDS011;700;51.906;8.404;2024-03-02T15:37:46;2.70;;;1.90;;
1410;SDS011;700;51.906;8.404;2024-03-02T15:42:46;3.10;;;2.47;;
1410;SDS011;700;51.906;8.404;2024-03-02T15:47:47;2.50;;;2.07;;
1410;SDS011;700;51.906;8.404;2024-03-02T15:52:48;3.40;;;2.27;;
1410;SDS011;700;51.906;8.404;2024-03-02T15:57:48;4.00;;;2.60;;
1410;SDS011;700;51.906;8.404;2024-03-02T16:02:51;3.00;;;2.47;;
1410;SDS011;700;51.906;8.404;2024-03-02T16:07:54;3.60;;;1.93;;
1410;SDS011;700;51.906;8.404;2024-03-02T16:12:55;3.17;;;2.00;;
1410;SDS011;700;51.906;8.404;2024-03-02T16:17:59;3.47;;;2.50;;
1410;SDS011;700;51.906;8.404;2024-03-02T16:23:01;4.17;;;2.20;;
1410;SDS011;700;51.906;8.404;2024-03-02T16:28:04;3.90;;;2.23;;
1410;SDS011;700;51.906;8.404;2024-03-02T16:33:05;3.30;;;2.40;;
1410;SDS011;700;51.906;8.404;2024-03-02T16:38:06;3.30;;;2.67;;
1410;SDS011;700;51.906;8.404;2024-03-02T16:43:06;5.87;;;2.50;;
1410;SDS011;700;51.906;8.404;2024-03-02T16:48:07;3.00;;;2.30;;
1410;SDS011;700;51.906;8.404;2024-03-02T16:53:08;3.90;;;2.80;;
1410;SDS011;700;51.906;8.404;2024-03-02T16:58:11;5.80;;;3.13;;
1410;SDS011;700;51.906;8.404;2024-03-02T17:03:11;3.47;;;2.20;;
1410;SDS011;700;51.906;8.404;2024-03-02T17:08:12;3.63;;;2.33;;
1410;SDS011;700;51.906;8.404;2024-03-02T17:13:15;4.60;;;2.90;;
1410;SDS011;700;51.906;8.404;2024-03-02T17:18:15;5.00;;;3.10;;
1410;SDS011;700;51.906;8.404;2024-03-02T17:23:17;5.33;;;3.30;;
1410;SDS011;700;51.906;8.404;2024-03-02T17:28:21;4.57;;;3.20;;
1410;SDS011;700;51.906;8.404;2024-03-02T17:33:23;4.90;;;3.13;;
1410;SDS011;700;51.906;8.404;2024-03-02T17:38:24;5.57;;;3.50;;
1410;SDS011;700;51.906;8.404;2024-03-02T17:43:25;4.60;;;3.40;;
1410;SDS011;700;51.906;8.404;2024-03-02T17:48:25;4.97;;;3.40;;
1410;SDS011;700;51.906;8.404;2024-03-02T17:53:26;9.70;;;3.73;;
1410;SDS011;700;51.906;8.404;2024-03-02T17:58:29;5.50;;;3.93;;
1410;SDS011;700;51.906;8.404;2024-03-02T18:03:35;5.40;;;3.50;;
1410;SDS011;700;51.906;8.404;2024-03-02T18:08:38;5.80;;;3.80;;
1410;SDS011;700;51.906;8.404;2024-03-02T18:13:40;6.17;;;4.27;;
1410;SDS011;700;51.906;8.404;2024-03-02T18:18:41;5.63;;;4.33;;
1410;SDS011;700;51.906;8.404;2024-03-02T18:23:46;5.70;;;4.23;;
1410;SDS011;700;51.906;8.404;2024-03-02T18:28:46;5.43;;;4.10;;
1410;SDS011;700;51.906;8.404;2024-03-02T18:33:50;5.83;;;4.40;;
1410;SDS011;700;51.906;8.404;2024-03-02T18:38:50;6.00;;;4.27;;
1410;SDS011;700;51.906;8.404;2024-03-02T18:43:51;5.40;;;4.00;;
1410;SDS011;700;51.906;8.404;2024-03-02T18:48:52;5.20;;;3.57;;
1410;SDS011;700;51.906;8.404;2024-03-02T18:53:54;5.33;;;4.57;;
1410;SDS011;700;51.906;8.404;2024-03-02T18:58:57;7.50;;;5.40;;
1410;SDS011;700;51.906;8.404;2024-03-02T19:04:00;6.30;;;5.17;;
1410;SDS011;700;51.906;8.404;2024-03-02T19:09:01;7.23;;;5.20;;
1410;SDS011;700;51.906;8.404;2024-03-02T19:14:01;8.67;;;4.90;;
1410;SDS011;700;51.906;8.404;2024-03-02T19:19:03;8.37;;;4.93;;
1410;SDS011;700;51.906;8.404;2024-03-02T19:24:03;8.67;;;4.73;;
1410;SDS011;700;51.906;8.404;2024-03-02T19:29:04;5.37;;;4.80;;
1410;SDS011;700;51.906;8.404;2024-03-02T19:34:05;5.67;;;5.00;;
1410;SDS011;700;51.906;8.404;2024-03-02T19:39:08;7.73;;;5.13;;
1410;SDS011;700;51.906;8.404;2024-03-02T19:44:11;8.33;;;6.00;;
1410;SDS011;700;51.906;8.404;2024-03-02T19:49:13;8.90;;;6.90;;
1410;SDS011;700;51.906;8.404;2024-03-02T19:54:15;8.90;;;5.53;;
1410;SDS011;700;51.906;8.404;2024-03-02T19:59:16;7.80;;;5.43;;
1410;SDS011;700;51.906;8.404;2024-03-02T20:04:19;8.90;;;5.80;;
1410;SDS011;700;51.906;8.404;2024-03-02T20:09:26;8.10;;;6.00;;
1410;SDS011;700;51.906;8.404;2024-03-02T20:14:29;6.47;;;5.13;;
1410;SDS011;700;51.906;8.404;2024-03-02T20:19:32;11.00;;;6.40;;
1410;SDS011;700;51.906;8.404;2024-03-02T20:24:33;8.40;;;5.73;;
1410;SDS011;700;51.906;8.404;2024-03-02T20:29:34;6.00;;;4.87;;
1410;SDS011;700;51.906;8.404;2024-03-02T20:34:34;6.13;;;5.00;;
1410;SDS011;700;51.906;8.404;2024-03-02T20:39:35;6.13;;;5.53;;
1410;SDS011;700;51.906;8.404;2024-03-02T20:44:36;6.67;;;4.80;;
1410;SDS011;700;51.906;8.404;2024-03-02T20:49:36;8.10;;;5.23;;
1410;SDS011;700;51.906;8.404;2024-03-02T20:54:37;6.40;;;4.70;;
1410;SDS011;700;51.906;8.404;2024-03-02T20:59:40;8.40;;;5.90;;
1410;SDS011;700;51.906;8.404;2024-03-02T21:04:41;8.80;;;6.10;;
1410;SDS011;700;51.906;8.404;2024-03-02T21:09:44;5.60;;;4.93;;
1410;SDS011;700;51.906;8.404;2024-03-02T21:14:47;9.10;;;6.40;;
1410;SDS011;700;51.906;8.404;2024-03-02T21:19:50;6.83;;;5.87;;
1410;SDS011;700;51.906;8.404;2024-03-02T21:24:52;14.00;;;6.83;;
1410;SDS011;700;51.906;8.404;2024-03-02T21:29:55;9.47;;;7.00;;
1410;SDS011;700;51.906;8.404;2024-03-02T21:34:58;9.73;;;7.23;;
1410;SDS011;700;51.906;8.404;2024-03-02T21:40:00;9.17;;;7.30;;
1410;SDS011;700;51.906;8.404;2024-03-02T21:45:01;10.13;;;7.90;;
1410;SDS011;700;51.906;8.404;2024-03-02T21:50:01;8.80;;;7.03;;
1410;SDS011;700;51.906;8.404;2024-03-02T21:55:04;9.20;;;7.50;;
1410;SDS011;700;51.906;8.404;2024-03-02T22:00:05;19.13;;;8.60;;
1410;SDS011;700;51.906;8.404;2024-03-02T22:05:06;9.63;;;7.50;;
1410;SDS011;700;51.906;8.404;2024-03-02T22:10:07;10.97;;;8.00;;
1410;SDS011;700;51.906;8.404;2024-03-02T22:15:08;16.10;;;8.87;;
1410;SDS011;700;51.906;8.404;2024-03-02T22:20:11;10.80;;;7.70;;
1410;SDS011;700;51.906;8.404;2024-03-02T22:25:12;10.30;;;7.83;;
1410;SDS011;700;51.906;8.404;2024-03-02T22:30:12;10.80;;;8.80;;
1410;SDS011;700;51.906;8.404;2024-03-02T22:35:18;10.50;;;8.10;;
1410;SDS011;700;51.906;8.404;2024-03-02T22:40:21;11.27;;;7.93;;
1410;SDS011;700;51.906;8.404;2024-03-02T22:45:25;12.67;;;8.47;;
1410;SDS011;700;51.906;8.404;2024-03-02T22:50:25;9.67;;;7.43;;
1410;SDS011;700;51.906;8.404;2024-03-02T22:55:28;12.43;;;8.50;;
1410;SDS011;700;51.906;8.404;2024-03-02T23:00:31;10.07;;;7.60;;
1410;SDS011;700;51.906;8.404;2024-03-02T23:05:35;11.67;;;8.53;;
1410;SDS011;700;51.906;8.404;2024-03-02T23:10:36;10.77;;;8.57;;
1410;SDS011;700;51.906;8.404;2024-03-02T23:15:36;11.27;;;7.77;;
1410;SDS011;700;51.906;8.404;2024-03-02T23:20:37;10.30;;;8.37;;
1410;SDS011;700;51.906;8.404;2024-03-02T23:25:37;10.00;;;8.20;;
1410;SDS011;700;51.906;8.404;2024-03-02T23:30:38;14.40;;;8.83;;
1410;SDS011;700;51.906;8.404;2024-03-02T23:35:39;12.80;;;8.90;;
1410;SDS011;700;51.906;8.404;2024-03-02T23:40:44;11.37;;;9.10;;
1410;SDS011;700;51.906;8.404;2024-03-02T23:45:50;12.57;;;8.77;;
1410;SDS011;700;51.906;8.404;2024-03-02T23:50:51;17.20;;;8.97;;
1410;SDS011;700;51.906;8.404;2024-03-02T23:55:52;13.13;;;10.07;;
